Time;durP1;ratioP1;P1;durP2;ratioP2;P2;SDS_P1;SDS_P2;PMS_P1;PMS_P2;Temp;Humidity;BMP_temperature;BMP_pressure;BME280_temperature;BME280_humidity;BME280_pressure;Samples;Min_cycle;Max_cycle;Signal;HPM_P1;HPM_P2
2021/10/06 00:00:37;;;;;;;7.47;2.72;;;11.40;99.90;;;;;;5075317;28;20665;-68
2021/10/06 00:03:02;;;;;;;4.63;2.30;;;11.40;99.90;;;;;;5077290;28;20043;-67
2021/10/06 00:05:28;;;;;;;8.35;2.67;;;11.40;99.90;;;;;;5077134;28;20044;-67
2021/10/06 00:07:54;;;;;;;5.05;2.10;;;11.40;99.90;;;;;;5076546;28;20055;-67
2021/10/06 00:10:19;;;;;;;6.63;2.22;;;11.40;99.90;;;;;;5075913;28;20048;-67
2021/10/06 00:12:45;;;;;;;5.03;2.28;;;11.40;99.90;;;;;;5080810;28;20052;-68
2021/10/06 00:15:12;;;;;;;6.63;2.88;;;11.30;99.90;;;;;;5075544;28;20043;-67
2021/10/06 00:17:38;;;;;;;7.18;2.30;;;11.40;99.90;;;;;;5079525;28;20498;-67
2021/10/06 00:20:05;;;;;;;7.30;2.17;;;11.40;99.90;;;;;;5077118;28;20040;-67
2021/10/06 00:22:30;;;;;;;4.13;1.67;;;11.40;99.90;;;;;;5078017;28;20040;-67
2021/10/06 00:24:56;;;;;;;5.15;1.92;;;11.30;99.90;;;;;;5078074;28;20109;-68
2021/10/06 00:27:21;;;;;;;5.07;2.42;;;11.40;99.90;;;;;;5079605;28;20123;-67
2021/10/06 00:29:47;;;;;;;4.13;1.40;;;11.30;99.90;;;;;;5077460;28;20708;-67
2021/10/06 00:32:13;;;;;;;6.55;3.20;;;11.30;99.90;;;;;;5079156;28;20043;-67
2021/10/06 00:34:39;;;;;;;10.23;2.05;;;11.30;99.90;;;;;;5078654;28;20060;-67
2021/10/06 00:37:04;;;;;;;5.50;1.50;;;11.30;99.90;;;;;;5075053;28;20041;-67
2021/10/06 00:39:30;;;;;;;2.75;1.33;;;11.30;99.90;;;;;;5074503;28;20044;-67
2021/10/06 00:41:55;;;;;;;4.38;1.00;;;11.20;99.90;;;;;;5111203;27;20114;-67
2021/10/06 00:44:22;;;;;;;6.18;1.27;;;11.20;99.90;;;;;;5078855;28;20040;-68
2021/10/06 00:46:48;;;;;;;3.63;1.05;;;11.20;99.90;;;;;;5111141;27;20043;-67
2021/10/06 00:49:15;;;;;;;9.32;1.45;;;11.20;99.90;;;;;;5076670;28;20073;-67
2021/10/06 00:51:41;;;;;;;4.43;1.00;;;11.20;99.90;;;;;;5076187;28;20055;-67
2021/10/06 00:54:07;;;;;;;7.35;1.25;;;11.20;99.90;;;;;;5077329;28;20074;-67
2021/10/06 00:56:33;;;;;;;4.75;1.95;;;11.20;99.90;;;;;;5073910;28;20048;-67
2021/10/06 00:58:59;;;;;;;5.05;1.67;;;11.20;99.90;;;;;;5077282;28;20063;-68
2021/10/06 01:01:24;;;;;;;8.27;1.42;;;11.20;99.90;;;;;;5074059;28;20048;-68
2021/10/06 01:03:50;;;;;;;6.28;1.20;;;11.10;99.90;;;;;;5077288;28;20036;-68
2021/10/06 01:06:16;;;;;;;4.32;1.52;;;11.20;99.90;;;;;;5074227;28;20331;-67
2021/10/06 01:08:42;;;;;;;4.78;1.10;;;11.20;99.90;;;;;;5078249;28;20045;-68
2021/10/06 01:11:09;;;;;;;10.60;1.67;;;11.10;99.90;;;;;;5076470;28;20113;-68
2021/10/06 01:13:36;;;;;;;5.15;1.40;;;11.20;99.90;;;;;;5077117;28;20475;-68
2021/10/06 01:16:02;;;;;;;7.57;1.42;;;11.10;99.90;;;;;;5078859;28;20032;-68
2021/10/06 01:18:28;;;;;;;4.13;1.20;;;11.10;99.90;;;;;;5077323;28;20639;-67
2021/10/06 01:20:53;;;;;;;4.68;1.30;;;11.10;99.90;;;;;;5075711;28;20146;-68
2021/10/06 01:23:19;;;;;;;6.50;1.38;;;11.10;99.90;;;;;;5074392;28;20036;-67
2021/10/06 01:25:45;;;;;;;5.22;1.77;;;11.10;99.90;;;;;;5077606;28;20181;-67
2021/10/06 01:28:11;;;;;;;3.72;1.20;;;11.10;99.90;;;;;;5074721;28;20062;-67
2021/10/06 01:30:36;;;;;;;4.60;1.30;;;11.10;99.90;;;;;;5075136;28;20036;-67
2021/10/06 01:33:02;;;;;;;2.67;1.25;;;11.00;99.90;;;;;;5077784;28;20078;-67
2021/10/06 01:35:28;;;;;;;5.22;1.15;;;11.10;99.90;;;;;;5074954;28;20133;-68
2021/10/06 01:37:53;;;;;;;7.82;1.40;;;11.10;99.90;;;;;;5076423;28;20119;-67
2021/10/06 01:40:22;;;;;;;3.25;1.00;;;11.00;99.90;;;;;;5075814;28;20068;-67
2021/10/06 01:42:50;;;;;;;6.35;1.75;;;11.10;99.90;;;;;;5077374;28;20039;-67
2021/10/06 01:45:24;;;;;;;3.83;1.63;;;11.10;99.90;;;;;;5109577;27;20036;-67
2021/10/06 01:47:50;;;;;;;8.63;1.30;;;11.10;99.90;;;;;;5076688;28;20036;-67
2021/10/06 01:50:20;;;;;;;5.60;1.52;;;11.10;99.90;;;;;;5107528;27;20047;-67
2021/10/06 01:52:46;;;;;;;3.13;1.50;;;11.10;99.90;;;;;;5075574;28;20467;-67
2021/10/06 01:55:11;;;;;;;6.45;1.70;;;11.10;99.90;;;;;;5081632;28;20055;-67
2021/10/06 01:57:37;;;;;;;4.82;1.48;;;11.10;99.90;;;;;;5059113;28;20075;-67
2021/10/06 02:00:04;;;;;;;4.13;2.10;;;11.00;99.90;;;;;;5075866;28;20039;-68
2021/10/06 02:02:29;;;;;;;5.35;1.70;;;11.10;99.90;;;;;;5075271;28;20660;-68
2021/10/06 02:04:55;;;;;;;10.18;2.40;;;11.10;99.90;;;;;;5076842;28;20039;-67
2021/10/06 02:07:20;;;;;;;7.07;2.33;;;11.10;99.90;;;;;;5076123;28;20039;-67
2021/10/06 02:09:46;;;;;;;5.10;2.00;;;11.00;99.90;;;;;;5109226;27;20128;-67
2021/10/06 02:12:11;;;;;;;6.93;2.28;;;11.00;99.90;;;;;;5076966;28;20032;-67
2021/10/06 02:14:37;;;;;;;6.95;2.28;;;11.00;99.90;;;;;;5080029;28;20040;-68
2021/10/06 02:17:03;;;;;;;7.43;2.67;;;11.00;99.90;;;;;;5079023;28;20040;-67
2021/10/06 02:19:28;;;;;;;4.90;2.03;;;11.00;99.90;;;;;;5079798;28;20486;-67
2021/10/06 02:21:54;;;;;;;5.97;1.98;;;11.00;99.90;;;;;;5083096;28;20067;-68
2021/10/06 02:24:20;;;;;;;7.65;2.47;;;10.90;99.90;;;;;;5080945;28;20028;-67
2021/10/06 02:26:45;;;;;;;7.30;2.28;;;11.10;99.90;;;;;;5087439;28;20040;-67
2021/10/06 02:29:11;;;;;;;8.90;2.50;;;11.00;99.90;;;;;;5084240;28;20082;-67
2021/10/06 02:31:36;;;;;;;10.25;3.17;;;11.00;99.90;;;;;;5085786;28;20541;-68
2021/10/06 02:34:02;;;;;;;8.63;3.47;;;11.00;99.90;;;;;;5088216;28;20032;-67
2021/10/06 02:36:27;;;;;;;8.15;3.28;;;11.10;99.90;;;;;;5089050;28;20047;-67
2021/10/06 02:38:53;;;;;;;8.93;3.60;;;11.10;99.90;;;;;;5086330;28;20048;-67
2021/10/06 02:41:19;;;;;;;7.38;4.05;;;11.10;99.90;;;;;;5085581;28;20076;-67
2021/10/06 02:43:44;;;;;;;8.07;4.28;;;11.10;99.90;;;;;;5085643;28;20067;-67
2021/10/06 02:46:10;;;;;;;7.15;3.97;;;11.10;99.90;;;;;;5087754;28;20083;-67
2021/10/06 02:48:35;;;;;;;7.32;4.03;;;11.00;99.90;;;;;;5088365;28;20032;-67
2021/10/06 02:51:01;;;;;;;10.50;4.45;;;11.10;99.90;;;;;;5085658;28;20031;-68
2021/10/06 02:53:27;;;;;;;8.90;4.15;;;11.10;99.90;;;;;;5086125;28;20054;-68
2021/10/06 02:55:52;;;;;;;7.88;5.10;;;11.10;99.90;;;;;;5085968;28;20039;-68
2021/10/06 02:58:18;;;;;;;9.63;4.30;;;11.10;99.90;;;;;;5084469;28;20048;-67
2021/10/06 03:00:43;;;;;;;8.52;4.50;;;11.10;99.90;;;;;;5086652;28;20161;-67
2021/10/06 03:03:09;;;;;;;9.05;4.28;;;11.20;99.90;;;;;;5089077;28;20050;-67
2021/10/06 03:05:34;;;;;;;13.23;4.22;;;11.20;99.90;;;;;;5087031;28;20039;-67
2021/10/06 03:08:00;;;;;;;8.55;3.70;;;11.20;99.90;;;;;;5086520;28;20482;-67
2021/10/06 03:10:25;;;;;;;7.85;3.85;;;11.20;99.90;;;;;;5086870;28;20066;-67
2021/10/06 03:12:51;;;;;;;8.40;4.15;;;11.20;99.90;;;;;;5091630;28;20064;-67
2021/10/06 03:15:16;;;;;;;9.02;3.47;;;11.20;99.90;;;;;;5088105;28;20044;-67
2021/10/06 03:17:42;;;;;;;9.32;3.15;;;11.20;99.90;;;;;;5085261;28;20367;-68
2021/10/06 03:20:09;;;;;;;7.38;3.97;;;11.30;99.90;;;;;;5087925;28;20036;-68
2021/10/06 03:22:35;;;;;;;7.57;3.70;;;11.30;99.90;;;;;;5086878;28;20043;-68
2021/10/06 03:25:01;;;;;;;7.53;3.85;;;11.30;99.90;;;;;;5084691;28;20036;-68
2021/10/06 03:27:26;;;;;;;11.02;4.00;;;11.30;99.90;;;;;;5086209;28;20044;-68
2021/10/06 03:29:52;;;;;;;11.63;3.70;;;11.30;99.90;;;;;;5088360;28;20542;-67
2021/10/06 03:32:17;;;;;;;8.80;3.47;;;11.20;99.90;;;;;;5086116;28;20044;-68
2021/10/06 03:34:43;;;;;;;7.18;4.35;;;11.20;99.90;;;;;;5086041;28;20082;-67
2021/10/06 03:37:09;;;;;;;12.27;4.07;;;11.20;99.90;;;;;;5085851;28;20047;-67
2021/10/06 03:39:34;;;;;;;11.93;3.13;;;11.20;99.90;;;;;;5086490;28;20673;-67
2021/10/06 03:42:00;;;;;;;7.65;2.92;;;11.20;99.90;;;;;;5072249;28;20040;-67
2021/10/06 03:44:26;;;;;;;6.97;2.60;;;11.20;99.90;;;;;;5086659;28;20680;-67
2021/10/06 03:46:52;;;;;;;6.22;2.80;;;11.20;99.90;;;;;;5084836;28;20032;-67
2021/10/06 03:49:17;;;;;;;7.38;2.35;;;11.20;99.90;;;;;;5085136;28;20043;-68
2021/10/06 03:51:43;;;;;;;7.30;2.30;;;11.30;99.90;;;;;;5085371;28;20127;-67
2021/10/06 03:54:09;;;;;;;11.20;2.33;;;11.20;99.90;;;;;;5084336;28;20392;-67
2021/10/06 03:56:35;;;;;;;4.93;2.03;;;11.20;99.90;;;;;;5117639;27;20040;-67
2021/10/06 03:59:01;;;;;;;8.13;2.08;;;11.20;99.90;;;;;;5086272;28;20040;-67
2021/10/06 04:01:26;;;;;;;5.05;1.50;;;11.20;99.90;;;;;;5086008;28;20043;-68
2021/10/06 04:03:52;;;;;;;6.15;1.52;;;11.20;99.90;;;;;;5087754;28;20059;-68
2021/10/06 04:06:18;;;;;;;5.70;1.70;;;11.20;99.90;;;;;;5079466;28;20040;-67
2021/10/06 04:08:43;;;;;;;7.18;1.63;;;11.10;99.90;;;;;;5085955;28;20048;-67
2021/10/06 04:11:09;;;;;;;8.70;2.00;;;11.10;99.90;;;;;;5081159;28;20048;-67
2021/10/06 04:13:35;;;;;;;3.83;1.25;;;11.10;99.90;;;;;;5086688;28;20044;-67
2021/10/06 04:16:01;;;;;;;6.35;2.33;;;11.10;99.90;;;;;;5085054;28;20032;-67
2021/10/06 04:18:26;;;;;;;4.80;1.17;;;11.10;99.90;;;;;;5084896;28;20616;-67
2021/10/06 04:20:52;;;;;;;7.30;1.80;;;11.10;99.90;;;;;;5085419;28;20741;-67
2021/10/06 04:23:18;;;;;;;4.80;1.00;;;11.10;99.90;;;;;;5087839;28;20046;-67
2021/10/06 04:25:43;;;;;;;5.47;1.40;;;11.10;99.90;;;;;;5086032;28;20031;-67
2021/10/06 04:28:09;;;;;;;6.32;1.30;;;11.10;99.90;;;;;;5088519;28;20123;-67
2021/10/06 04:30:35;;;;;;;3.28;1.20;;;11.00;99.90;;;;;;5086980;28;20481;-67
2021/10/06 04:33:01;;;;;;;3.03;1.27;;;11.10;99.90;;;;;;5085782;28;20080;-67
2021/10/06 04:35:26;;;;;;;7.75;1.42;;;11.10;99.90;;;;;;5087236;28;20508;-67
2021/10/06 04:37:52;;;;;;;6.18;1.80;;;11.10;99.90;;;;;;5086944;28;20043;-67
2021/10/06 04:40:18;;;;;;;5.10;1.60;;;11.10;99.90;;;;;;5085165;28;20457;-67
2021/10/06 04:42:45;;;;;;;6.97;2.05;;;11.10;99.90;;;;;;5087442;28;20067;-68
2021/10/06 04:45:12;;;;;;;6.13;2.15;;;11.10;99.90;;;;;;5084961;28;20078;-68
2021/10/06 04:47:37;;;;;;;7.80;2.15;;;11.20;99.90;;;;;;5082532;28;20561;-68
2021/10/06 04:50:03;;;;;;;5.70;2.45;;;11.20;99.90;;;;;;5086642;28;20037;-68
2021/10/06 04:52:29;;;;;;;7.88;2.38;;;11.10;99.90;;;;;;5083277;28;20028;-68
2021/10/06 04:54:55;;;;;;;4.65;2.38;;;11.10;99.90;;;;;;5085133;28;20096;-68
2021/10/06 04:57:21;;;;;;;8.43;2.45;;;11.10;99.90;;;;;;5085944;28;20135;-68
2021/10/06 04:59:46;;;;;;;6.30;2.92;;;11.10;99.90;;;;;;5091238;28;20144;-68
2021/10/06 05:02:12;;;;;;;6.65;2.70;;;11.10;99.90;;;;;;5084573;28;20074;-68
2021/10/06 05:04:38;;;;;;;7.05;3.17;;;11.10;99.90;;;;;;5079036;28;20086;-68
2021/10/06 05:07:03;;;;;;;11.52;3.25;;;11.10;99.90;;;;;;5087243;28;20517;-68
2021/10/06 05:09:29;;;;;;;7.25;2.95;;;11.10;99.90;;;;;;5083519;28;20620;-68
2021/10/06 05:11:54;;;;;;;6.20;3.20;;;11.10;99.90;;;;;;5085870;28;20043;-68
2021/10/06 05:14:20;;;;;;;7.28;2.60;;;11.00;99.90;;;;;;5084167;28;20048;-68
2021/10/06 05:16:46;;;;;;;8.80;3.28;;;11.10;99.90;;;;;;5079809;28;20072;-68
2021/10/06 05:19:12;;;;;;;9.82;3.00;;;11.00;99.90;;;;;;5109486;27;20047;-68
2021/10/06 05:21:39;;;;;;;3.40;2.60;;;11.00;99.90;;;;;;5076899;28;20047;-68
2021/10/06 05:24:05;;;;;;;5.85;2.33;;;11.00;99.90;;;;;;5062176;28;20032;-68
2021/10/06 05:26:31;;;;;;;7.25;2.38;;;11.00;99.90;;;;;;5077526;28;20038;-68
2021/10/06 05:28:57;;;;;;;7.32;2.15;;;11.00;99.90;;;;;;5075560;28;20052;-68
2021/10/06 05:31:22;;;;;;;5.13;2.10;;;11.00;99.90;;;;;;5076696;28;20063;-68
2021/10/06 05:33:49;;;;;;;3.70;2.10;;;10.90;99.90;;;;;;5076990;28;20479;-68
2021/10/06 05:36:16;;;;;;;6.63;2.17;;;10.90;99.90;;;;;;5081403;28;20042;-68
2021/10/06 05:38:42;;;;;;;4.75;2.47;;;10.90;99.90;;;;;;5081575;28;20040;-68
2021/10/06 05:41:08;;;;;;;7.15;2.30;;;10.90;99.90;;;;;;5081031;28;20077;-68
2021/10/06 05:43:33;;;;;;;5.47;2.47;;;10.90;99.90;;;;;;5076258;28;20032;-68
2021/10/06 05:45:59;;;;;;;5.13;2.85;;;10.90;99.90;;;;;;5063665;28;20430;-68
2021/10/06 05:48:24;;;;;;;3.33;2.15;;;10.90;99.90;;;;;;5077349;28;20105;-68
2021/10/06 05:50:50;;;;;;;6.93;2.78;;;10.80;99.90;;;;;;5075558;28;20047;-68
2021/10/06 05:53:17;;;;;;;6.63;2.63;;;10.80;99.90;;;;;;5084264;28;20130;-68
2021/10/06 05:55:43;;;;;;;3.63;1.98;;;10.80;99.90;;;;;;5085885;28;20052;-68
2021/10/06 05:58:09;;;;;;;5.18;2.72;;;10.90;99.90;;;;;;5079374;28;20042;-68
2021/10/06 06:00:35;;;;;;;8.30;3.20;;;10.80;99.90;;;;;;5082500;28;20386;-68
2021/10/06 06:03:00;;;;;;;5.53;2.85;;;10.90;99.90;;;;;;5081237;28;20040;-69
2021/10/06 06:05:27;;;;;;;4.30;2.83;;;10.90;99.90;;;;;;5085667;28;20119;-69
2021/10/06 06:07:52;;;;;;;7.55;3.17;;;10.80;99.90;;;;;;5083153;28;20167;-69
2021/10/06 06:10:18;;;;;;;5.93;3.35;;;10.80;99.90;;;;;;5083678;28;20174;-69
2021/10/06 06:12:44;;;;;;;6.75;3.13;;;10.80;99.90;;;;;;5083132;28;20042;-68
2021/10/06 06:15:11;;;;;;;6.75;3.42;;;10.80;99.90;;;;;;5079178;28;20125;-68
2021/10/06 06:17:39;;;;;;;4.82;3.28;;;10.80;99.90;;;;;;5079109;28;20115;-68
2021/10/06 06:20:10;;;;;;;5.80;3.50;;;10.80;99.90;;;;;;5083294;28;20885;-68
2021/10/06 06:22:37;;;;;;;5.93;3.17;;;10.80;99.90;;;;;;5081576;28;20378;-68
2021/10/06 06:25:05;;;;;;;7.88;3.33;;;10.80;99.90;;;;;;5082892;28;20600;-68
2021/10/06 06:27:30;;;;;;;11.38;3.28;;;10.90;99.90;;;;;;5083161;28;20035;-68
2021/10/06 06:29:56;;;;;;;7.55;2.70;;;10.90;99.90;;;;;;5078840;28;20055;-68
2021/10/06 06:32:22;;;;;;;6.93;3.15;;;10.90;99.90;;;;;;5081646;28;20036;-68
2021/10/06 06:34:47;;;;;;;4.18;2.60;;;10.90;99.90;;;;;;5079924;28;22085;-68
2021/10/06 06:37:13;;;;;;;4.10;2.30;;;10.90;99.90;;;;;;5083398;28;20509;-68
2021/10/06 06:39:39;;;;;;;5.53;2.60;;;11.00;99.90;;;;;;5081506;28;20048;-68
2021/10/06 06:42:05;;;;;;;5.53;2.58;;;11.00;99.90;;;;;;5078361;28;20043;-68
2021/10/06 06:44:33;;;;;;;6.57;2.50;;;11.00;99.90;;;;;;5082177;28;20036;-69
2021/10/06 06:46:59;;;;;;;3.53;2.40;;;11.00;99.90;;;;;;5078736;28;20082;-68
2021/10/06 06:49:25;;;;;;;5.32;2.45;;;11.00;99.90;;;;;;5079289;28;20040;-68
2021/10/06 06:51:51;;;;;;;4.30;2.50;;;11.10;99.90;;;;;;5081216;28;20075;-68
2021/10/06 06:54:17;;;;;;;3.00;1.80;;;11.10;99.90;;;;;;5081306;28;20487;-68
2021/10/06 06:56:43;;;;;;;2.03;1.52;;;11.10;99.90;;;;;;5081522;28;20059;-68
2021/10/06 06:59:09;;;;;;;4.03;1.67;;;11.10;99.90;;;;;;5080307;28;20036;-68
2021/10/06 07:01:36;;;;;;;3.17;2.00;;;11.10;99.90;;;;;;5077584;28;20039;-68
2021/10/06 07:04:01;;;;;;;5.07;2.45;;;11.20;99.90;;;;;;5077420;28;20040;-68
2021/10/06 07:06:32;;;;;;;4.53;2.20;;;11.20;99.90;;;;;;5078298;28;20391;-68
2021/10/06 07:08:59;;;;;;;3.97;2.22;;;11.20;99.90;;;;;;5080015;28;20048;-68
2021/10/06 07:11:25;;;;;;;3.05;1.70;;;11.20;99.90;;;;;;5079231;28;20056;-68
2021/10/06 07:13:51;;;;;;;3.22;1.80;;;11.20;99.90;;;;;;5077683;28;20093;-68
2021/10/06 07:16:17;;;;;;;3.00;1.55;;;11.30;99.90;;;;;;5080898;28;20039;-69
2021/10/06 07:18:42;;;;;;;4.32;1.67;;;11.30;99.90;;;;;;5081545;28;20039;-68
2021/10/06 07:21:08;;;;;;;3.97;1.60;;;11.40;99.90;;;;;;5074583;28;20036;-69
2021/10/06 07:23:33;;;;;;;2.03;1.27;;;11.50;99.90;;;;;;5079904;28;20115;-68
2021/10/06 07:25:59;;;;;;;3.05;1.25;;;11.50;99.90;;;;;;5076974;28;20379;-69
2021/10/06 07:28:25;;;;;;;2.75;1.30;;;11.40;99.90;;;;;;5077059;28;20055;-68
2021/10/06 07:30:51;;;;;;;3.60;1.73;;;11.50;99.90;;;;;;5080132;28;20183;-68
2021/10/06 07:33:17;;;;;;;7.47;1.75;;;11.50;99.90;;;;;;5076661;28;20040;-68
2021/10/06 07:35:42;;;;;;;2.85;1.45;;;11.50;99.90;;;;;;5078369;28;20032;-68
2021/10/06 07:38:08;;;;;;;5.15;2.00;;;11.50;99.90;;;;;;5062288;28;20071;-68
2021/10/06 07:40:34;;;;;;;2.50;1.60;;;11.40;99.90;;;;;;5078271;28;20091;-68
2021/10/06 07:42:59;;;;;;;3.13;1.75;;;11.40;99.90;;;;;;5081239;28;20032;-69
2021/10/06 07:45:25;;;;;;;3.78;1.90;;;11.40;99.90;;;;;;5075493;28;20040;-68
2021/10/06 07:47:51;;;;;;;2.47;2.03;;;11.30;99.90;;;;;;5074866;28;20076;-68
2021/10/06 07:50:16;;;;;;;3.97;1.90;;;11.30;99.90;;;;;;5082233;28;20100;-68
2021/10/06 07:52:42;;;;;;;3.80;2.55;;;11.20;99.90;;;;;;5080926;28;20039;-69
2021/10/06 07:55:08;;;;;;;4.05;3.10;;;11.20;99.90;;;;;;5079353;28;20080;-69
2021/10/06 07:57:35;;;;;;;4.07;3.00;;;11.20;99.90;;;;;;5079034;28;20044;-69
2021/10/06 08:00:05;;;;;;;4.32;2.95;;;11.10;99.90;;;;;;5078263;28;20032;-69
2021/10/06 08:02:31;;;;;;;6.65;3.65;;;11.20;99.90;;;;;;5081616;28;20051;-69
2021/10/06 08:04:57;;;;;;;3.88;3.20;;;11.20;99.90;;;;;;5078730;28;20040;-68
2021/10/06 08:07:22;;;;;;;3.63;3.15;;;11.20;99.90;;;;;;5079183;28;20133;-68
2021/10/06 08:09:48;;;;;;;8.82;3.83;;;11.10;99.90;;;;;;5083547;28;20040;-70
2021/10/06 08:12:15;;;;;;;4.80;3.88;;;11.20;99.90;;;;;;5085552;28;20071;-69
2021/10/06 08:14:41;;;;;;;6.85;3.30;;;11.20;99.90;;;;;;5121852;27;20126;-70
2021/10/06 08:17:07;;;;;;;4.22;3.55;;;11.10;99.90;;;;;;5078539;28;20071;-67
2021/10/06 08:19:32;;;;;;;5.75;3.65;;;11.20;99.90;;;;;;5077420;28;20044;-67
2021/10/06 08:21:58;;;;;;;7.78;3.75;;;11.20;99.90;;;;;;5080661;28;20131;-67
2021/10/06 08:24:24;;;;;;;3.63;3.15;;;11.20;99.90;;;;;;5081749;28;20082;-67
2021/10/06 08:26:58;;;;;;;4.47;3.20;;;11.20;99.90;;;;;;5077394;28;20485;-68
2021/10/06 08:29:24;;;;;;;5.23;3.40;;;11.20;99.90;;;;;;5079481;28;20032;-68
2021/10/06 08:31:50;;;;;;;3.55;2.80;;;11.20;99.90;;;;;;5077893;28;20043;-68
2021/10/06 08:34:16;;;;;;;5.97;3.75;;;11.20;99.90;;;;;;5076229;28;20048;-68
2021/10/06 08:36:41;;;;;;;5.60;3.00;;;11.20;99.90;;;;;;5077450;28;20849;-68
2021/10/06 08:39:08;;;;;;;4.60;3.30;;;11.20;99.90;;;;;;5075984;28;20100;-68
2021/10/06 08:41:35;;;;;;;4.00;2.40;;;11.20;99.90;;;;;;5081557;28;20032;-68
2021/10/06 08:44:00;;;;;;;6.70;3.30;;;11.20;99.90;;;;;;5077783;28;20048;-68
2021/10/06 08:46:27;;;;;;;6.65;2.80;;;11.10;99.90;;;;;;5063660;28;20414;-68
2021/10/06 08:48:54;;;;;;;5.85;3.63;;;11.30;99.90;;;;;;5079640;28;20811;-67
2021/10/06 08:51:21;;;;;;;2.97;2.63;;;11.20;99.90;;;;;;5077726;28;20145;-67
2021/10/06 08:53:49;;;;;;;5.68;3.03;;;11.20;99.90;;;;;;5079096;28;20039;-68
2021/10/06 08:56:15;;;;;;;4.95;2.53;;;11.30;99.90;;;;;;5078128;28;20096;-68
2021/10/06 08:58:40;;;;;;;6.45;2.90;;;11.40;99.90;;;;;;5076262;28;20040;-67
2021/10/06 09:01:06;;;;;;;3.85;2.80;;;11.40;99.90;;;;;;5076107;28;20051;-68
2021/10/06 09:03:34;;;;;;;5.35;3.17;;;11.50;99.90;;;;;;5084836;28;20119;-67
2021/10/06 09:06:10;;;;;;;4.88;3.08;;;11.50;99.90;;;;;;5076732;28;20177;-68
2021/10/06 09:08:43;;;;;;;4.88;3.17;;;11.60;99.90;;;;;;5079256;28;20127;-68
2021/10/06 09:11:08;;;;;;;7.82;3.58;;;11.70;99.90;;;;;;5076138;28;20040;-68
2021/10/06 09:13:38;;;;;;;5.28;2.65;;;11.80;99.90;;;;;;5075658;28;20048;-67
2021/10/06 09:16:04;;;;;;;9.10;3.90;;;11.80;99.90;;;;;;5081374;28;20085;-68
2021/10/06 09:18:32;;;;;;;5.50;2.60;;;11.90;99.90;;;;;;5085823;28;20051;-68
2021/10/06 09:21:04;;;;;;;5.30;2.08;;;11.90;99.90;;;;;;5075766;28;20044;-67
2021/10/06 09:23:34;;;;;;;3.15;2.55;;;11.90;99.90;;;;;;5076802;28;20036;-67
2021/10/06 09:26:05;;;;;;;7.43;3.33;;;11.90;99.90;;;;;;5077682;28;20762;-68
2021/10/06 09:28:38;;;;;;;8.55;2.70;;;12.00;99.90;;;;;;5077431;28;21434;-68
2021/10/06 09:31:19;;;;;;;6.93;3.05;;;12.00;99.90;;;;;;5078605;28;20097;-67
2021/10/06 09:33:54;;;;;;;4.28;2.25;;;12.00;99.90;;;;;;5077500;28;20054;-67
2021/10/06 09:36:31;;;;;;;10.50;3.00;;;12.20;99.90;;;;;;5077739;28;20040;-68
2021/10/06 09:39:00;;;;;;;5.18;1.98;;;12.20;99.90;;;;;;5110088;27;20079;-67
2021/10/06 09:41:34;;;;;;;5.55;2.45;;;12.30;99.90;;;;;;5078475;28;20123;-68
2021/10/06 09:44:16;;;;;;;3.95;1.88;;;12.40;99.90;;;;;;5078501;28;20116;-68
2021/10/06 09:46:51;;;;;;;2.47;1.40;;;12.40;99.90;;;;;;5079294;28;20565;-67
2021/10/06 09:49:34;;;;;;;4.10;1.60;;;12.60;99.90;;;;;;5084671;28;20123;-67
2021/10/06 09:52:19;;;;;;;4.28;1.70;;;12.60;99.90;;;;;;5077122;28;20039;-68
2021/10/06 09:54:49;;;;;;;4.35;1.60;;;12.60;99.90;;;;;;5077860;28;21011;-68
2021/10/06 09:57:35;;;;;;;4.38;1.60;;;12.60;99.90;;;;;;5078882;28;20639;-68
2021/10/06 10:00:07;;;;;;;4.40;1.77;;;12.60;99.90;;;;;;5076491;28;20383;-68
2021/10/06 10:02:34;;;;;;;3.67;1.20;;;12.60;99.90;;;;;;5075434;28;20266;-68
2021/10/06 10:05:00;;;;;;;3.92;1.52;;;12.70;99.90;;;;;;5072401;28;20048;-68
2021/10/06 10:07:27;;;;;;;4.43;1.50;;;12.70;99.90;;;;;;5081644;28;20037;-68
2021/10/06 10:09:53;;;;;;;4.47;1.48;;;12.80;99.90;;;;;;5078038;28;20101;-69
2021/10/06 10:12:22;;;;;;;3.22;1.40;;;12.80;99.90;;;;;;5078481;28;20059;-69
2021/10/06 10:14:48;;;;;;;6.50;2.05;;;12.80;99.90;;;;;;5076790;28;20058;-69
2021/10/06 10:17:15;;;;;;;3.33;1.40;;;12.90;99.90;;;;;;5110307;27;20089;-69
2021/10/06 10:19:43;;;;;;;4.03;1.60;;;13.00;99.90;;;;;;5074723;28;20050;-69
2021/10/06 10:22:09;;;;;;;4.10;1.55;;;13.20;99.90;;;;;;5074488;28;20032;-69
2021/10/06 10:24:51;;;;;;;3.67;1.45;;;13.40;99.90;;;;;;5072644;28;20060;-69
2021/10/06 10:27:22;;;;;;;3.70;1.00;;;13.50;99.90;;;;;;5075013;28;20040;-69
2021/10/06 10:30:05;;;;;;;3.78;1.55;;;13.60;99.90;;;;;;5076619;28;20108;-69
2021/10/06 10:32:46;;;;;;;3.25;0.90;;;13.60;99.90;;;;;;5077991;28;20040;-69
2021/10/06 10:35:17;;;;;;;1.88;0.70;;;13.60;99.90;;;;;;5074845;28;20035;-69
2021/10/06 10:37:49;;;;;;;4.25;0.80;;;13.60;99.90;;;;;;5078532;28;20147;-69
2021/10/06 10:40:37;;;;;;;3.60;0.95;;;13.60;99.90;;;;;;5084835;28;20067;-69
2021/10/06 10:43:08;;;;;;;4.50;1.10;;;13.70;99.90;;;;;;5078185;28;20028;-69
2021/10/06 10:45:37;;;;;;;3.53;0.70;;;13.70;99.90;;;;;;5078519;28;20078;-69
2021/10/06 10:48:04;;;;;;;3.33;0.93;;;13.70;99.90;;;;;;5063969;28;20036;-69
2021/10/06 10:50:42;;;;;;;4.38;0.85;;;13.80;99.90;;;;;;5111874;27;20102;-69
2021/10/06 10:53:09;;;;;;;4.55;1.17;;;13.80;99.90;;;;;;5115802;27;20056;-69
2021/10/06 10:56:03;;;;;;;3.40;0.80;;;13.80;99.90;;;;;;5080723;28;20048;-69
2021/10/06 10:58:31;;;;;;;5.07;0.95;;;13.90;99.90;;;;;;5082782;28;20047;-69
2021/10/06 11:00:59;;;;;;;7.68;1.42;;;13.90;99.90;;;;;;5081669;28;20055;-69
2021/10/06 11:03:25;;;;;;;2.25;0.80;;;13.90;99.90;;;;;;5078860;28;20731;-69
2021/10/06 11:05:52;;;;;;;2.50;0.85;;;14.00;99.90;;;;;;5083748;28;20119;-69
2021/10/06 11:08:35;;;;;;;4.13;0.70;;;14.30;99.90;;;;;;5078109;28;20043;-69
2021/10/06 11:11:10;;;;;;;3.38;0.70;;;14.50;99.90;;;;;;5080592;28;20028;-69
2021/10/06 11:13:37;;;;;;;4.47;0.60;;;14.70;99.90;;;;;;5078862;28;20112;-69
2021/10/06 11:16:04;;;;;;;3.03;0.70;;;14.90;99.90;;;;;;5082391;28;20086;-69
2021/10/06 11:18:45;;;;;;;4.38;0.82;;;15.20;99.90;;;;;;5062008;28;20040;-69
2021/10/06 11:21:11;;;;;;;3.13;0.85;;;15.50;99.90;;;;;;5078788;28;20044;-69
2021/10/06 11:23:39;;;;;;;4.10;0.45;;;15.80;99.90;;;;;;5079106;28;20036;-69
2021/10/06 11:26:12;;;;;;;2.80;0.70;;;16.10;99.90;;;;;;5078245;28;20037;-69
2021/10/06 11:28:43;;;;;;;1.77;0.40;;;16.40;99.90;;;;;;5079813;28;20881;-69
2021/10/06 11:31:10;;;;;;;3.58;0.47;;;16.60;99.90;;;;;;5080669;28;20495;-69
2021/10/06 11:33:36;;;;;;;3.55;0.60;;;16.80;99.90;;;;;;5077596;28;20530;-69
2021/10/06 11:36:11;;;;;;;3.20;0.90;;;17.00;99.90;;;;;;5081529;28;20047;-69
2021/10/06 11:38:38;;;;;;;3.20;0.60;;;17.10;99.90;;;;;;5075861;28;20135;-69
2021/10/06 11:41:05;;;;;;;1.98;0.35;;;16.90;99.90;;;;;;5078880;28;20481;-69
2021/10/06 11:43:57;;;;;;;4.53;0.45;;;17.00;99.90;;;;;;5079418;28;20072;-69
2021/10/06 11:46:32;;;;;;;2.40;0.40;;;17.20;99.90;;;;;;5085850;28;20052;-69
2021/10/06 11:48:59;;;;;;;4.32;0.57;;;17.30;99.90;;;;;;5076559;28;20048;-69
2021/10/06 11:51:47;;;;;;;2.53;0.32;;;17.40;99.90;;;;;;5078940;28;20044;-69
2021/10/06 11:54:16;;;;;;;2.22;0.30;;;17.50;99.90;;;;;;5075431;28;20055;-69
2021/10/06 11:56:43;;;;;;;2.38;0.30;;;17.40;99.90;;;;;;5075662;28;20048;-69
2021/10/06 11:59:17;;;;;;;4.00;0.70;;;17.40;99.90;;;;;;5077170;28;20052;-69
2021/10/06 12:01:54;;;;;;;4.07;0.35;;;17.50;99.90;;;;;;5078669;28;20044;-69
2021/10/06 12:04:23;;;;;;;3.92;0.57;;;17.60;99.90;;;;;;5092220;28;20063;-69
2021/10/06 12:06:55;;;;;;;4.68;0.30;;;17.50;99.90;;;;;;5079685;28;20482;-69
2021/10/06 12:09:21;;;;;;;3.67;0.30;;;17.50;99.90;;;;;;5079814;28;20098;-69
2021/10/06 12:11:47;;;;;;;1.77;0.30;;;17.50;99.90;;;;;;5081749;28;20044;-69
2021/10/06 12:14:17;;;;;;;5.93;0.55;;;17.50;99.90;;;;;;5073947;28;20447;-69
2021/10/06 12:16:43;;;;;;;4.43;0.60;;;17.40;99.90;;;;;;5076098;28;20041;-69
2021/10/06 12:19:08;;;;;;;3.13;0.40;;;17.30;99.90;;;;;;5076560;28;20114;-69
2021/10/06 12:21:34;;;;;;;6.95;0.93;;;17.20;99.90;;;;;;5077041;28;20063;-69
2021/10/06 12:24:13;;;;;;;2.33;0.63;;;17.20;99.90;;;;;;5077241;28;20040;-69
2021/10/06 12:26:39;;;;;;;1.10;0.20;;;17.10;99.90;;;;;;5079150;28;20047;-69
2021/10/06 12:29:05;;;;;;;2.67;0.55;;;17.00;99.90;;;;;;5078312;28;20073;-70
2021/10/06 12:31:33;;;;;;;0.77;0.30;;;16.90;99.90;;;;;;5076743;28;20050;-70
2021/10/06 12:34:12;;;;;;;1.58;0.40;;;16.80;99.90;;;;;;5077321;28;20135;-70
2021/10/06 12:37:05;;;;;;;5.07;0.30;;;16.70;99.90;;;;;;5079427;28;20631;-70
2021/10/06 12:39:30;;;;;;;3.40;0.60;;;16.70;99.90;;;;;;5075228;28;20073;-70
2021/10/06 12:42:01;;;;;;;2.72;0.40;;;16.60;99.90;;;;;;5076251;28;20044;-70
2021/10/06 12:44:34;;;;;;;2.05;0.40;;;16.60;99.90;;;;;;5074921;28;21578;-70
2021/10/06 12:47:00;;;;;;;3.65;0.30;;;16.50;99.90;;;;;;5078022;28;20029;-70